Yantley, Alabama
Current Conditions -  °F | °C
As of 3:58 AM on Sunday 23 Nov 2014 (Local Time) from KMEI Reporting Station
Overcast Overcast  
Wind Chill: 58°   Ceiling: 600
Heat Index: 58°   Visibility: 9mi
Dew Point: 56°   Wind: 6mph
Humidity: 93%   Direction: 110°ESE
Pressure: 29.84"   Gusts: NA
Location:  32.241°N, 88.3441°W
Report Text: KMEI 230958Z AUTO 11005KT 9SM OVC006 14/13 A2984 RMK AO2 SLP101 T01440133
Loading
Personal Weather Stations






























Interactive Weather Map New forecast layout! Learn more

10-Day Weather Forecast

Advertisements
Track Severe Weather on mobile